Time;durP1;ratioP1;P1;durP2;ratioP2;P2;SDS_P1;SDS_P2;PMS_P1;PMS_P2;Temp;Humidity;BMP_temperature;BMP_pressure;BME280_temperature;BME280_humidity;BME280_pressure;Samples;Min_cycle;Max_cycle;Signal;HPM_P1;HPM_P2
2022/07/09 00:00:15;;;;;;;1.07;0.60;;;;;;;20.02;49.06;99981.28;5093369;28;43846;-78
2022/07/09 00:02:43;;;;;;;0.63;0.60;;;;;;;19.96;49.42;99979.97;5074686;28;42019;-78
2022/07/09 00:05:12;;;;;;;0.57;0.50;;;;;;;19.89;49.43;99975.22;5074969;28;40329;-78
2022/07/09 00:07:39;;;;;;;0.43;0.43;;;;;;;19.83;49.50;99975.72;5093073;28;42471;-78
2022/07/09 00:10:08;;;;;;;0.73;0.60;;;;;;;19.71;50.18;99973.06;5091943;28;41806;-78
2022/07/09 00:12:36;;;;;;;0.90;0.60;;;;;;;19.67;49.85;99970.75;5090861;28;41433;-77
2022/07/09 00:15:06;;;;;;;0.50;0.50;;;;;;;19.59;50.24;99962.47;5093352;28;41673;-78
2022/07/09 00:17:34;;;;;;;0.97;0.70;;;;;;;19.51;50.23;99964.94;5091657;28;40682;-78
2022/07/09 00:20:04;;;;;;;0.67;0.50;;;;;;;19.43;50.47;99957.47;5091466;28;42156;-78
2022/07/09 00:22:32;;;;;;;0.80;0.40;;;;;;;19.35;50.62;99963.47;5092814;28;43359;-78
2022/07/09 00:25:01;;;;;;;0.67;0.60;;;;;;;19.19;50.74;99938.81;5075078;28;38935;-78
2022/07/09 00:27:29;;;;;;;0.60;0.60;;;;;;;19.23;50.98;99966.28;5092681;28;42002;-77
2022/07/09 00:29:56;;;;;;;0.60;0.60;;;;;;;19.05;51.11;99940.91;5092805;28;42807;-78
2022/07/09 00:32:25;;;;;;;0.57;0.57;;;;;;;19.14;51.43;99956.31;5092563;28;43263;-78
2022/07/09 00:34:53;;;;;;;0.83;0.70;;;;;;;19.07;51.22;99949.69;5074713;28;38990;-77
2022/07/09 00:37:21;;;;;;;0.47;0.47;;;;;;;19.05;51.59;99960.56;5092447;28;41770;-77
2022/07/09 00:39:49;;;;;;;0.80;0.80;;;;;;;19.00;51.97;99960.94;5074571;28;42811;-77
2022/07/09 00:42:17;;;;;;;1.23;0.80;;;;;;;18.94;52.22;99961.41;5091095;28;42597;-78
2022/07/09 00:44:44;;;;;;;2.00;0.80;;;;;;;18.87;52.33;99970.09;5092824;28;39983;-78
2022/07/09 00:47:12;;;;;;;1.07;0.70;;;;;;;18.78;53.14;99960.09;5074063;28;42099;-77
2022/07/09 00:49:43;;;;;;;1.83;0.83;;;;;;;18.68;53.15;99957.25;5091428;28;42696;-78
2022/07/09 00:52:12;;;;;;;1.27;0.60;;;;;;;18.57;53.35;99957.19;5089145;28;42514;-78
2022/07/09 00:54:41;;;;;;;0.70;0.70;;;;;;;18.52;53.87;99948.69;5091509;28;40100;-78
2022/07/09 00:57:10;;;;;;;1.03;0.80;;;;;;;18.44;54.68;99946.56;5074139;28;41059;-78
2022/07/09 00:59:39;;;;;;;0.70;0.70;;;;;;;18.38;54.10;99946.22;5092290;28;42854;-77
2022/07/09 01:02:09;;;;;;;0.70;0.70;;;;;;;18.29;54.73;99943.28;5090746;28;42211;-77
2022/07/09 01:04:39;;;;;;;0.60;0.60;;;;;;;18.23;54.79;99938.38;5090977;28;40867;-78
2022/07/09 01:07:08;;;;;;;0.60;0.60;;;;;;;18.18;54.98;99945.03;5091977;28;43923;-78
2022/07/09 01:09:36;;;;;;;1.20;0.70;;;;;;;18.08;55.05;99934.16;5092215;28;43750;-78
2022/07/09 01:12:05;;;;;;;0.87;0.70;;;;;;;18.10;54.94;99947.47;5091698;28;42020;-77
2022/07/09 01:14:32;;;;;;;1.33;0.70;;;;;;;18.08;54.74;99942.22;5090989;28;38971;-78
2022/07/09 01:17:01;;;;;;;2.40;0.70;;;;;;;17.99;55.04;99932.19;5073926;28;40550;-78
2022/07/09 01:19:29;;;;;;;2.03;0.83;;;;;;;18.05;54.87;99939.75;5092276;28;42830;-77
2022/07/09 01:21:59;;;;;;;1.43;0.60;;;;;;;17.92;55.13;99920.25;5090762;28;42272;-77
2022/07/09 01:24:27;;;;;;;0.80;0.80;;;;;;;18.06;54.71;99937.94;5073962;28;38776;-78
2022/07/09 01:26:55;;;;;;;0.90;0.70;;;;;;;18.06;55.04;99933.44;5091570;28;41713;-78
2022/07/09 01:29:23;;;;;;;0.60;0.60;;;;;;;18.07;54.55;99927.09;5073895;28;44136;-77
2022/07/09 01:31:51;;;;;;;0.87;0.60;;;;;;;18.08;54.53;99931.50;5090387;28;41258;-78
2022/07/09 01:34:19;;;;;;;0.70;0.70;;;;;;;17.99;54.60;99912.56;5092164;28;39864;-77
2022/07/09 01:36:47;;;;;;;1.23;0.80;;;;;;;18.06;54.97;99929.88;5090047;28;40919;-78
2022/07/09 01:39:16;;;;;;;1.33;0.80;;;;;;;18.06;55.13;99920.03;5073726;28;41711;-78
2022/07/09 01:41:44;;;;;;;0.70;0.70;;;;;;;18.06;55.35;99922.69;5073300;28;42914;-78
2022/07/09 01:44:12;;;;;;;0.87;0.60;;;;;;;17.98;55.63;99903.69;5091797;28;39973;-78
2022/07/09 01:46:39;;;;;;;1.33;0.90;;;;;;;18.05;55.56;99907.59;5090211;28;41787;-78
2022/07/09 01:49:07;;;;;;;0.67;0.60;;;;;;;18.06;55.71;99913.81;5090775;28;43014;-78
2022/07/09 01:51:35;;;;;;;0.73;0.73;;;;;;;17.99;55.86;99902.72;5089895;28;42265;-77
2022/07/09 01:54:04;;;;;;;0.77;0.70;;;;;;;17.95;55.57;99904.75;5091459;28;40287;-78
2022/07/09 01:56:34;;;;;;;1.10;1.00;;;;;;;17.85;55.35;99894.88;5076745;28;40772;-77
2022/07/09 01:59:02;;;;;;;1.43;0.67;;;;;;;17.80;55.73;99897.88;5091039;28;42870;-77
2022/07/09 02:01:30;;;;;;;0.87;0.87;;;;;;;17.78;55.76;99896.31;5093644;28;42631;-78
2022/07/09 02:03:58;;;;;;;1.00;0.80;;;;;;;17.47;56.12;99853.03;5094200;28;40031;-78
2022/07/09 02:06:25;;;;;;;0.80;0.80;;;;;;;17.67;55.97;99896.28;5076631;28;42125;-77
2022/07/09 02:08:53;;;;;;;0.80;0.80;;;;;;;17.64;56.16;99896.50;5093818;28;43182;-77
2022/07/09 02:11:21;;;;;;;1.37;0.87;;;;;;;17.59;56.18;99889.59;5094130;28;42478;-77
2022/07/09 02:13:50;;;;;;;0.70;0.70;;;;;;;17.54;56.49;99897.16;5093873;28;39106;-78
2022/07/09 02:16:18;;;;;;;0.93;0.80;;;;;;;17.41;56.81;99877.59;5092916;28;42307;-78
2022/07/09 02:18:45;;;;;;;0.70;0.70;;;;;;;17.39;56.65;99886.72;5094175;28;42794;-78
2022/07/09 02:21:13;;;;;;;0.73;0.70;;;;;;;17.38;56.65;99893.91;5093249;28;42262;-78
2022/07/09 02:23:41;;;;;;;0.70;0.70;;;;;;;17.35;56.82;99886.09;5076797;28;38540;-78
2022/07/09 02:26:08;;;;;;;0.70;0.70;;;;;;;17.34;56.90;99895.06;5093331;28;40767;-79
2022/07/09 02:28:36;;;;;;;1.67;0.93;;;;;;;17.26;56.96;99875.19;5093823;28;42009;-78
2022/07/09 02:31:05;;;;;;;0.83;0.80;;;;;;;17.23;57.21;99866.41;5093386;28;42649;-78
2022/07/09 02:33:33;;;;;;;0.83;0.70;;;;;;;17.37;57.35;99883.28;5093775;28;40082;-78
2022/07/09 02:36:01;;;;;;;1.10;0.73;;;;;;;17.31;57.17;99868.53;5094391;28;42292;-78
2022/07/09 02:38:29;;;;;;;1.10;0.90;;;;;;;17.41;57.57;99882.97;5093684;28;42503;-78
2022/07/09 02:40:56;;;;;;;1.27;0.90;;;;;;;17.42;57.33;99887.34;5076035;28;41103;-78
2022/07/09 02:43:24;;;;;;;1.13;0.80;;;;;;;17.43;57.53;99888.22;5076686;28;39997;-77
2022/07/09 02:45:55;;;;;;;1.13;0.80;;;;;;;17.36;57.61;99866.38;5093023;28;42163;-77
2022/07/09 02:48:25;;;;;;;1.53;1.03;;;;;;;17.47;57.58;99885.16;5071324;28;42562;-78
2022/07/09 02:50:53;;;;;;;0.63;0.63;;;;;;;17.48;57.70;99886.88;5089340;28;42636;-79
2022/07/09 02:53:21;;;;;;;1.10;1.00;;;;;;;17.48;57.95;99889.56;5093549;28;39487;-77
2022/07/09 02:55:49;;;;;;;1.07;0.93;;;;;;;17.49;57.84;99890.41;5076209;28;40910;-77
2022/07/09 02:58:16;;;;;;;1.87;0.90;;;;;;;17.46;57.89;99894.16;5075956;28;44300;-77
2022/07/09 03:00:44;;;;;;;0.90;0.90;;;;;;;17.43;57.76;99894.38;5093094;28;42568;-77
2022/07/09 03:03:12;;;;;;;1.00;1.00;;;;;;;17.41;57.93;99888.31;5093019;28;39796;-77
2022/07/09 03:05:41;;;;;;;1.20;0.90;;;;;;;17.37;58.33;99886.81;5075454;28;40938;-78
2022/07/09 03:08:09;;;;;;;0.90;0.80;;;;;;;17.35;58.20;99888.75;5075769;28;41672;-78
2022/07/09 03:10:37;;;;;;;1.10;1.00;;;;;;;17.34;58.14;99886.19;5093970;28;42271;-78
2022/07/09 03:13:05;;;;;;;0.97;0.80;;;;;;;17.24;58.13;99875.31;5075806;28;39946;-77
2022/07/09 03:15:32;;;;;;;0.97;0.97;;;;;;;17.30;58.60;99890.94;5075839;28;40956;-78
2022/07/09 03:18:00;;;;;;;0.60;0.60;;;;;;;17.32;58.50;99883.63;5092434;28;41787;-77
2022/07/09 03:20:28;;;;;;;0.90;0.90;;;;;;;17.36;58.33;99886.94;5092723;28;42440;-78
2022/07/09 03:22:57;;;;;;;0.90;0.80;;;;;;;17.39;58.21;99886.72;5075605;28;38905;-78
2022/07/09 03:25:25;;;;;;;1.30;0.93;;;;;;;17.42;57.88;99887.34;5093969;28;41871;-77
2022/07/09 03:27:57;;;;;;;1.50;0.90;;;;;;;17.45;57.92;99887.09;5075880;28;41740;-77
2022/07/09 03:30:25;;;;;;;1.17;0.83;;;;;;;17.47;57.83;99885.16;5092318;28;41100;-77
2022/07/09 03:32:53;;;;;;;0.73;0.73;;;;;;;17.52;57.77;99879.47;5092356;28;39266;-77
2022/07/09 03:35:20;;;;;;;2.30;1.10;;;;;;;17.47;58.21;99863.75;5075694;28;41889;-77
2022/07/09 03:37:48;;;;;;;1.17;0.70;;;;;;;17.62;58.16;99876.97;5075440;28;41332;-77
2022/07/09 03:40:17;;;;;;;2.40;1.17;;;;;;;17.68;57.68;99881.91;5092475;28;43266;-78
2022/07/09 03:42:45;;;;;;;0.83;0.80;;;;;;;17.70;57.71;99877.25;5092327;28;40774;-78
2022/07/09 03:45:13;;;;;;;1.07;0.90;;;;;;;17.71;57.60;99870.94;5092258;28;41806;-77
2022/07/09 03:47:40;;;;;;;1.03;0.87;;;;;;;17.81;57.90;99878.16;5092066;28;43273;-77
2022/07/09 03:50:09;;;;;;;2.20;1.20;;;;;;;17.67;57.68;99854.25;5092096;28;43282;-77
2022/07/09 03:52:37;;;;;;;1.33;0.70;;;;;;;17.88;57.63;99881.22;5092026;28;41181;-77
2022/07/09 03:55:05;;;;;;;1.13;0.90;;;;;;;17.91;57.72;99878.31;5093381;28;42709;-77
2022/07/09 03:57:34;;;;;;;1.07;1.00;;;;;;;17.93;58.01;99876.34;5092906;28;43669;-77
2022/07/09 04:00:02;;;;;;;1.50;0.87;;;;;;;17.96;58.11;99876.13;5074991;28;43787;-77
2022/07/09 04:02:40;;;;;;;1.00;0.90;;;;;;;18.00;57.96;99876.75;5091992;28;40332;-77
2022/07/09 04:05:09;;;;;;;1.43;0.90;;;;;;;18.00;58.29;99877.63;5074793;28;40988;-77
2022/07/09 04:07:39;;;;;;;1.10;0.97;;;;;;;18.01;58.13;99873.97;5093063;28;42540;-78
2022/07/09 04:10:08;;;;;;;1.00;0.83;;;;;;;17.90;58.39;99852.50;5093138;28;42836;-77
2022/07/09 04:12:37;;;;;;;2.13;1.20;;;;;;;17.99;58.54;99870.53;5092585;28;40913;-78
2022/07/09 04:15:06;;;;;;;1.67;0.90;;;;;;;17.68;58.32;99817.59;5091930;28;41808;-78
2022/07/09 04:17:34;;;;;;;0.97;0.90;;;;;;;18.03;58.33;99872.03;5074028;28;41962;-78
2022/07/09 04:20:02;;;;;;;3.33;1.10;;;;;;;18.05;58.47;99878.09;5092534;28;43286;-77
2022/07/09 04:22:30;;;;;;;1.00;0.90;;;;;;;18.07;58.29;99883.34;5091664;28;39836;-77
2022/07/09 04:24:59;;;;;;;1.57;1.13;;;;;;;18.11;58.36;99882.16;5092755;28;41661;-77
2022/07/09 04:27:26;;;;;;;0.83;0.83;;;;;;;18.16;58.63;99883.50;5092551;28;43736;-77
2022/07/09 04:29:56;;;;;;;0.97;0.97;;;;;;;18.22;58.44;99883.03;5091651;28;42287;-78
2022/07/09 04:32:23;;;;;;;1.03;0.93;;;;;;;18.24;58.69;99870.34;5074516;28;38630;-78
2022/07/09 04:34:51;;;;;;;1.30;1.20;;;;;;;18.22;58.32;99872.28;5092696;28;42507;-77
2022/07/09 04:37:19;;;;;;;1.27;1.10;;;;;;;18.34;58.56;99883.03;5091124;28;43255;-78
2022/07/09 04:39:47;;;;;;;1.10;1.00;;;;;;;18.43;58.69;99890.34;5091492;28;42270;-77
2022/07/09 04:42:15;;;;;;;1.37;1.20;;;;;;;18.52;58.31;99890.50;5091267;28;39839;-78
2022/07/09 04:44:43;;;;;;;1.23;1.10;;;;;;;18.60;58.56;99892.59;5092208;28;42754;-78
2022/07/09 04:47:12;;;;;;;1.00;0.93;;;;;;;18.66;58.48;99886.78;5091108;28;41594;-77
2022/07/09 04:49:40;;;;;;;3.23;1.23;;;;;;;18.74;58.36;99895.06;5074394;28;41198;-77
2022/07/09 04:52:08;;;;;;;3.03;1.33;;;;;;;18.75;58.19;99886.03;5074276;28;40214;-77
2022/07/09 04:54:36;;;;;;;1.27;1.10;;;;;;;18.77;58.61;99886.75;5090922;28;40796;-77
2022/07/09 04:57:05;;;;;;;1.50;1.20;;;;;;;18.81;58.27;99885.53;5091067;28;41922;-77
2022/07/09 04:59:32;;;;;;;2.50;1.07;;;;;;;18.90;58.19;99884.81;5091139;28;43061;-78
2022/07/09 05:02:00;;;;;;;1.53;1.00;;;;;;;19.02;57.67;99878.44;5091074;28;39877;-78
2022/07/09 05:04:29;;;;;;;2.17;1.17;;;;;;;19.20;57.49;99881.44;5092054;28;42708;-78
2022/07/09 05:06:57;;;;;;;1.20;1.10;;;;;;;19.13;57.05;99836.44;5090754;28;43825;-78
2022/07/09 05:09:25;;;;;;;1.30;1.10;;;;;;;19.64;57.07;99885.88;5092128;28;42159;-78
2022/07/09 05:11:54;;;;;;;2.77;1.10;;;;;;;19.83;56.29;99889.69;5091889;28;40884;-77
2022/07/09 05:14:21;;;;;;;1.10;0.97;;;;;;;19.93;56.12;99887.94;5092349;28;42813;-78
2022/07/09 05:16:49;;;;;;;1.27;1.00;;;;;;;19.92;56.06;99867.41;5090593;28;42592;-78
2022/07/09 05:19:17;;;;;;;1.23;1.10;;;;;;;20.00;56.17;99875.69;5092150;28;43231;-78
2022/07/09 05:21:46;;;;;;;2.10;1.00;;;;;;;20.15;56.06;99890.53;5091874;28;40267;-77
2022/07/09 05:24:14;;;;;;;1.23;1.00;;;;;;;20.22;55.66;99890.84;5090987;28;40662;-78
2022/07/09 05:26:42;;;;;;;1.37;0.90;;;;;;;20.26;55.17;99893.13;5090182;28;42710;-77
2022/07/09 05:29:10;;;;;;;3.10;1.00;;;;;;;20.29;55.57;99898.22;5089883;28;41186;-78
2022/07/09 05:31:38;;;;;;;3.20;1.20;;;;;;;20.32;55.42;99900.66;5090231;28;41375;-78
2022/07/09 05:34:07;;;;;;;1.53;1.43;;;;;;;20.33;55.44;99888.91;5090805;28;41731;-78
2022/07/09 05:36:36;;;;;;;1.37;0.90;;;;;;;20.31;55.40;99896.25;5073220;28;41802;-78
2022/07/09 05:39:07;;;;;;;0.80;0.80;;;;;;;20.32;55.31;99892.59;5090760;28;41591;-78
2022/07/09 05:41:34;;;;;;;1.50;0.97;;;;;;;20.26;55.07;99877.00;5073184;28;38997;-76
2022/07/09 05:44:03;;;;;;;1.10;1.10;;;;;;;20.35;55.51;99887.00;5092214;28;41783;-78
2022/07/09 05:46:31;;;;;;;1.33;1.23;;;;;;;20.41;55.19;99881.06;5090121;28;41742;-78
2022/07/09 05:48:58;;;;;;;2.03;1.10;;;;;;;20.55;54.93;99887.06;5073721;28;40992;-78
2022/07/09 05:51:26;;;;;;;1.13;0.80;;;;;;;20.66;54.82;99879.75;5072929;28;39709;-78
2022/07/09 05:53:54;;;;;;;1.20;1.10;;;;;;;20.84;54.40;99892.59;5091715;28;42744;-78
2022/07/09 05:56:23;;;;;;;1.30;0.90;;;;;;;20.99;53.89;99889.41;5072835;28;43530;-78
2022/07/09 05:58:51;;;;;;;1.13;0.80;;;;;;;21.11;53.40;99891.00;5090272;28;42283;-78
2022/07/09 06:01:19;;;;;;;1.77;1.10;;;;;;;20.97;53.28;99850.97;5091315;28;40847;-78
2022/07/09 06:03:47;;;;;;;1.10;0.83;;;;;;;21.39;53.17;99894.75;5090359;28;40798;-78
2022/07/09 06:06:15;;;;;;;2.60;1.20;;;;;;;21.55;52.94;99904.16;5089687;28;43948;-78
2022/07/09 06:08:42;;;;;;;2.97;1.17;;;;;;;21.69;52.80;99892.97;5090355;28;42367;-78
2022/07/09 06:11:11;;;;;;;1.60;1.00;;;;;;;21.83;51.70;99897.94;5090541;28;41004;-77
2022/07/09 06:13:40;;;;;;;1.57;0.97;;;;;;;21.99;51.88;99900.97;5091419;28;42056;-78
2022/07/09 06:16:08;;;;;;;2.20;1.10;;;;;;;22.18;51.71;99903.63;5089537;28;42666;-78
2022/07/09 06:18:36;;;;;;;1.60;1.00;;;;;;;22.33;50.82;99906.72;5090277;28;41358;-78
2022/07/09 06:21:04;;;;;;;1.33;0.90;;;;;;;22.50;50.78;99903.25;5089878;28;40320;-78
2022/07/09 06:23:32;;;;;;;1.03;0.93;;;;;;;22.73;49.52;99905.63;5090126;28;41769;-78
2022/07/09 06:25:59;;;;;;;3.43;1.37;;;;;;;23.00;49.13;99910.22;5072416;28;43130;-78
2022/07/09 06:28:27;;;;;;;1.20;0.80;;;;;;;23.29;48.59;99909.06;5090053;28;41177;-78
2022/07/09 06:30:56;;;;;;;1.37;0.87;;;;;;;23.54;48.07;99912.06;5072674;28;39038;-78
2022/07/09 06:33:24;;;;;;;1.50;0.90;;;;;;;23.75;47.63;99912.63;5090001;28;40737;-78
2022/07/09 06:35:52;;;;;;;1.10;1.00;;;;;;;23.99;47.45;99903.88;5089710;28;41471;-78
2022/07/09 06:38:20;;;;;;;1.07;0.90;;;;;;;24.24;47.17;99913.09;5053003;28;42260;-78
2022/07/09 06:40:48;;;;;;;1.90;1.40;;;;;;;24.49;46.00;99911.41;5072768;28;40661;-78
2022/07/09 06:43:15;;;;;;;1.13;1.00;;;;;;;24.76;45.86;99910.41;5092454;28;40547;-78
2022/07/09 06:45:48;;;;;;;0.80;0.80;;;;;;;24.90;45.90;99907.09;5076401;28;42531;-78
2022/07/09 06:48:17;;;;;;;0.80;0.80;;;;;;;25.11;45.10;99915.69;5094001;28;42560;-78
2022/07/09 06:50:45;;;;;;;1.13;1.03;;;;;;;25.25;45.12;99920.47;5094410;28;40786;-78
2022/07/09 06:53:12;;;;;;;1.17;0.90;;;;;;;25.33;44.85;99916.97;5094275;28;41904;-78
2022/07/09 06:55:40;;;;;;;0.83;0.70;;;;;;;25.40;45.07;99913.44;5094313;28;42541;-78
2022/07/09 06:58:08;;;;;;;1.23;0.97;;;;;;;25.46;44.16;99928.22;5075958;28;41409;-78
2022/07/09 07:00:35;;;;;;;1.43;0.97;;;;;;;25.51;44.60;99919.56;5093176;28;40023;-78
2022/07/09 07:03:03;;;;;;;1.17;0.77;;;;;;;25.69;44.49;99923.03;5093083;28;42445;-79
2022/07/09 07:05:33;;;;;;;1.30;0.90;;;;;;;25.84;44.18;99909.66;5075923;28;41622;-78
2022/07/09 07:08:00;;;;;;;1.47;1.30;;;;;;;26.12;43.71;99922.72;5092758;28;41135;-78
2022/07/09 07:10:28;;;;;;;1.73;1.13;;;;;;;26.27;43.52;99930.19;5075901;28;38911;-79
2022/07/09 07:12:56;;;;;;;1.37;1.10;;;;;;;26.40;42.60;99933.28;5093913;28;41801;-78
2022/07/09 07:15:24;;;;;;;1.83;1.00;;;;;;;26.54;42.72;99931.75;5076010;28;42013;-78
2022/07/09 07:17:51;;;;;;;1.20;1.00;;;;;;;26.68;43.18;99937.31;5075625;28;41298;-79
2022/07/09 07:20:22;;;;;;;1.33;1.23;;;;;;;26.84;42.45;99931.81;5092972;28;40584;-79
2022/07/09 07:22:52;;;;;;;1.30;1.20;;;;;;;27.07;42.26;99933.84;5089463;28;42622;-79
2022/07/09 07:25:19;;;;;;;1.90;1.43;;;;;;;27.35;41.56;99929.63;5093817;28;42588;-79
2022/07/09 07:27:47;;;;;;;2.67;1.40;;;;;;;27.58;41.10;99934.31;5092394;28;43231;-79
2022/07/09 07:30:15;;;;;;;1.83;1.30;;;;;;;27.74;40.96;99920.59;5075773;28;39008;-78
2022/07/09 07:32:42;;;;;;;1.57;1.00;;;;;;;28.04;40.66;99936.06;5092476;28;41688;-78
2022/07/09 07:35:10;;;;;;;3.90;1.17;;;;;;;28.34;39.78;99919.81;5075541;28;42769;-79
2022/07/09 07:37:38;;;;;;;2.23;1.33;;;;;;;29.00;39.04;99939.97;5074858;28;41219;-79
2022/07/09 07:40:09;;;;;;;0.83;0.73;;;;;;;29.40;38.16;99939.53;5092624;28;41637;-78
2022/07/09 07:42:37;;;;;;;2.10;1.50;;;;;;;29.67;37.46;99920.72;5075159;28;42017;-80
2022/07/09 07:45:05;;;;;;;2.27;1.07;;;;;;;30.45;36.16;99950.72;5092545;28;41664;-79
2022/07/09 07:47:33;;;;;;;1.60;1.43;;;;;;;31.44;34.97;99956.91;5091892;28;41356;-80
2022/07/09 07:50:01;;;;;;;3.93;1.40;;;;;;;32.45;33.54;99966.91;5093602;28;40846;-78
2022/07/09 07:52:29;;;;;;;3.53;1.57;;;;;;;33.14;32.00;99971.94;5092366;28;41759;-79
2022/07/09 07:54:57;;;;;;;1.37;1.17;;;;;;;32.86;32.44;99962.28;5092027;28;41641;-79
2022/07/09 07:57:26;;;;;;;1.50;1.40;;;;;;;32.72;32.47;99953.22;5093259;28;42453;-79
2022/07/09 07:59:53;;;;;;;2.30;1.70;;;;;;;32.50;32.39;99954.47;5092126;28;40813;-79
2022/07/09 08:02:21;;;;;;;3.53;1.80;;;;;;;32.25;32.73;99951.50;5091954;28;42449;-80
2022/07/09 08:04:49;;;;;;;2.20;1.47;;;;;;;33.00;31.62;99958.47;5091718;28;41572;-80
2022/07/09 08:07:17;;;;;;;1.20;1.13;;;;;;;34.10;30.50;99951.91;5091723;28;43597;-80
2022/07/09 08:09:44;;;;;;;2.57;1.20;;;;;;;33.82;30.82;99964.13;5075281;28;39069;-79
2022/07/09 08:12:12;;;;;;;3.73;1.63;;;;;;;33.40;30.06;99959.22;5074442;28;40918;-79
2022/07/09 08:14:41;;;;;;;1.43;1.10;;;;;;;33.13;30.70;99953.81;5092348;28;42560;-80
2022/07/09 08:17:09;;;;;;;1.87;1.53;;;;;;;33.52;30.21;99954.72;5074748;28;42351;-79
2022/07/09 08:19:37;;;;;;;3.50;1.30;;;;;;;33.22;30.33;99929.69;5091999;28;39833;-78
2022/07/09 08:22:05;;;;;;;1.83;1.10;;;;;;;32.67;31.51;99936.53;5092834;28;42524;-80
2022/07/09 08:24:33;;;;;;;2.07;1.13;;;;;;;32.16;32.05;99928.03;5074721;28;41481;-80
2022/07/09 08:27:01;;;;;;;1.27;1.10;;;;;;;31.68;33.30;99915.31;5091270;28;43209;-79
2022/07/09 08:29:29;;;;;;;1.63;1.40;;;;;;;31.47;33.68;99915.44;5092839;28;41168;-79
2022/07/09 08:31:58;;;;;;;1.40;1.20;;;;;;;31.26;33.49;99913.66;5092568;28;42711;-79
2022/07/09 08:34:26;;;;;;;2.10;1.27;;;;;;;31.12;33.86;99911.06;5091654;28;43593;-79
2022/07/09 08:36:54;;;;;;;1.70;1.23;;;;;;;31.07;33.87;99901.53;5090873;28;41109;-79
2022/07/09 08:39:21;;;;;;;1.90;1.20;;;;;;;31.10;33.81;99899.47;5092081;28;40947;-80
2022/07/09 08:41:49;;;;;;;1.33;1.10;;;;;;;31.00;33.81;99906.13;5091341;28;42034;-79
2022/07/09 08:44:20;;;;;;;0.80;0.63;;;;;;;30.74;33.78;99911.44;5091771;28;43377;-80
2022/07/09 08:46:48;;;;;;;1.57;1.17;;;;;;;30.43;34.50;99900.03;5091119;28;42307;-80
2022/07/09 08:49:18;;;;;;;1.10;1.00;;;;;;;30.03;35.06;99891.50;5091532;28;40452;-79
2022/07/09 08:51:47;;;;;;;1.00;0.90;;;;;;;29.74;36.21;99888.88;5091943;28;43154;-78
2022/07/09 08:54:16;;;;;;;1.90;1.27;;;;;;;29.46;36.39;99878.69;5074528;28;42976;-79
2022/07/09 08:56:44;;;;;;;3.33;1.50;;;;;;;29.06;36.65;99866.41;5090877;28;41241;-79
2022/07/09 08:59:11;;;;;;;2.47;1.47;;;;;;;28.82;37.01;99881.19;5074659;28;39098;-78
2022/07/09 09:01:39;;;;;;;3.43;1.50;;;;;;;28.61;36.84;99867.44;5090813;28;40869;-81
2022/07/09 09:04:08;;;;;;;1.40;1.00;;;;;;;28.57;35.92;99882.47;5092553;28;43454;-78
2022/07/09 09:06:40;;;;;;;3.07;1.00;;;;;;;28.57;35.79;99885.19;5090480;28;42798;-78
2022/07/09 09:09:10;;;;;;;0.90;0.87;;;;;;;28.83;35.84;99885.59;5074302;28;40259;-78
2022/07/09 09:11:39;;;;;;;0.90;0.90;;;;;;;29.30;35.41;99887.09;5091416;28;41716;-79
2022/07/09 09:14:06;;;;;;;1.10;0.90;;;;;;;30.03;35.15;99885.19;5091199;28;43128;-80
2022/07/09 09:16:43;;;;;;;1.07;0.70;;;;;;;30.52;32.52;99907.06;5091669;28;42353;-79
2022/07/09 09:19:11;;;;;;;0.77;0.77;;;;;;;30.74;32.58;99903.25;5091176;28;41245;-79
2022/07/09 09:21:40;;;;;;;0.90;0.70;;;;;;;30.73;32.15;99909.75;5091534;28;41895;-79
2022/07/09 09:24:08;;;;;;;1.00;0.90;;;;;;;30.50;32.18;99914.59;5090809;28;42250;-79
2022/07/09 09:26:37;;;;;;;0.90;0.90;;;;;;;30.24;32.81;99896.94;5090378;28;41777;-78
2022/07/09 09:29:05;;;;;;;0.93;0.93;;;;;;;30.16;33.00;99896.25;5092280;28;40361;-78
2022/07/09 09:31:35;;;;;;;2.13;1.17;;;;;;;30.08;32.78;99899.94;5073176;28;40544;-79
2022/07/09 09:34:13;;;;;;;0.90;0.90;;;;;;;29.96;33.01;99879.66;5090861;28;41798;-78
2022/07/09 09:36:44;;;;;;;1.20;0.90;;;;;;;29.99;32.75;99896.50;5090267;28;42269;-78
2022/07/09 09:39:14;;;;;;;0.90;0.90;;;;;;;29.89;32.81;99892.38;5092386;28;40486;-78
2022/07/09 09:41:44;;;;;;;0.70;0.70;;;;;;;29.89;33.41;99900.59;5073057;28;40559;-78
2022/07/09 09:44:14;;;;;;;0.90;0.90;;;;;;;29.78;32.72;99912.88;5090625;28;41844;-79
2022/07/09 09:46:43;;;;;;;1.67;0.90;;;;;;;30.17;32.59;99906.97;5089672;28;42350;-78
2022/07/09 09:49:14;;;;;;;1.93;1.00;;;;;;;30.30;32.28;99903.50;5073628;28;41139;-79
2022/07/09 09:51:48;;;;;;;1.10;1.00;;;;;;;30.20;32.85;99901.09;5072767;28;41019;-79
2022/07/09 09:54:17;;;;;;;1.37;1.20;;;;;;;30.14;33.09;99893.72;5073516;28;43033;-78
2022/07/09 09:56:45;;;;;;;1.20;1.10;;;;;;;29.92;33.74;99881.06;5090112;28;42339;-79
2022/07/09 09:59:13;;;;;;;1.70;1.27;;;;;;;30.19;34.06;99895.84;5091817;28;39953;-78
2022/07/09 10:01:42;;;;;;;1.43;1.20;;;;;;;31.06;33.45;99899.84;5072669;28;42272;-78
2022/07/09 10:04:11;;;;;;;3.00;1.23;;;;;;;32.36;31.04;99902.38;5091442;28;43085;-78
2022/07/09 10:06:39;;;;;;;1.70;1.07;;;;;;;33.18;30.48;99906.47;5090486;28;43284;-79
2022/07/09 10:09:11;;;;;;;1.40;1.27;;;;;;;33.14;29.69;99914.28;5073435;28;40188;-78
2022/07/09 10:11:40;;;;;;;1.90;1.30;;;;;;;32.86;30.06;99915.66;5089346;28;41578;-79
2022/07/09 10:14:09;;;;;;;2.73;2.13;;;;;;;32.54;30.15;99914.59;5091534;28;42749;-78
2022/07/09 10:16:39;;;;;;;1.77;1.23;;;;;;;32.62;30.29;99914.38;5076063;28;41480;-79
2022/07/09 10:19:08;;;;;;;1.37;1.27;;;;;;;32.62;29.88;99917.13;5076822;28;39951;-79
2022/07/09 10:21:37;;;;;;;2.70;1.70;;;;;;;32.63;30.81;99905.09;5094445;28;42795;-78
2022/07/09 10:24:06;;;;;;;1.40;1.30;;;;;;;32.57;30.19;99904.03;5076733;28;41822;-79
2022/07/09 10:26:53;;;;;;;1.63;1.10;;;;;;;32.48;30.74;99903.44;5093185;28;41195;-80
2022/07/09 10:29:22;;;;;;;1.23;1.13;;;;;;;32.16;30.69;99890.50;5091876;28;40684;-79
2022/07/09 10:31:50;;;;;;;1.70;1.60;;;;;;;31.94;30.93;99891.75;5094380;28;42637;-78
2022/07/09 10:34:44;;;;;;;1.67;1.50;;;;;;;31.65;31.47;99891.06;5076913;28;41559;-77
2022/07/09 10:37:11;;;;;;;1.53;1.43;;;;;;;31.33;31.60;99900.84;5090118;28;43082;-78
2022/07/09 10:39:39;;;;;;;1.57;1.40;;;;;;;31.03;31.70;99892.03;5076543;28;40090;-78
2022/07/09 10:42:19;;;;;;;1.50;1.30;;;;;;;30.76;32.90;99879.28;5093103;28;41629;-78
2022/07/09 10:44:49;;;;;;;1.67;1.57;;;;;;;30.68;33.04;99884.88;5093322;28;42047;-78
2022/07/09 10:47:17;;;;;;;1.53;1.33;;;;;;;30.77;32.71;99880.13;5092811;28;41170;-78
2022/07/09 10:49:45;;;;;;;2.03;1.70;;;;;;;30.82;32.61;99886.66;5092835;28;39922;-78
2022/07/09 10:52:12;;;;;;;1.43;1.33;;;;;;;30.93;32.64;99877.03;5092969;28;42324;-78
2022/07/09 10:54:48;;;;;;;2.13;1.37;;;;;;;30.99;32.50;99871.63;5093021;28;44365;-78
2022/07/09 10:57:17;;;;;;;1.83;1.43;;;;;;;31.05;32.05;99876.25;5089635;28;42112;-78
2022/07/09 10:59:48;;;;;;;1.87;1.53;;;;;;;31.38;31.74;99859.16;5093179;28;39907;-78
2022/07/09 11:02:20;;;;;;;2.73;1.40;;;;;;;32.18;31.25;99863.75;5092681;28;40642;-78
2022/07/09 11:04:52;;;;;;;1.53;1.30;;;;;;;32.54;31.17;99865.22;5092629;28;43640;-79
2022/07/09 11:07:22;;;;;;;1.77;1.67;;;;;;;33.12;30.63;99863.41;5075528;28;42812;-79
2022/07/09 11:09:51;;;;;;;2.50;1.63;;;;;;;33.72;29.89;99852.97;5094122;28;40667;-78
2022/07/09 11:12:22;;;;;;;1.77;1.67;;;;;;;33.78;28.87;99847.44;5092085;28;40711;-78
2022/07/09 11:14:52;;;;;;;2.97;1.60;;;;;;;33.85;29.06;99864.75;5075957;28;41832;-78
2022/07/09 11:17:21;;;;;;;1.87;1.50;;;;;;;33.59;28.60;99861.31;5092707;28;42306;-78
2022/07/09 11:19:49;;;;;;;2.20;2.00;;;;;;;33.15;28.43;99841.00;5092852;28;39952;-78
2022/07/09 11:22:17;;;;;;;1.83;1.47;;;;;;;33.23;28.82;99843.50;5093321;28;42686;-79
2022/07/09 11:24:45;;;;;;;1.97;1.87;;;;;;;33.22;28.94;99830.84;5093111;28;43665;-79
2022/07/09 11:27:14;;;;;;;2.27;1.90;;;;;;;33.24;30.05;99816.94;5092341;28;43025;-80
2022/07/09 11:29:48;;;;;;;1.73;1.60;;;;;;;33.26;29.07;99820.31;5092390;28;39753;-79
2022/07/09 11:32:18;;;;;;;1.87;1.77;;;;;;;33.21;28.62;99814.56;5089131;28;41493;-79
2022/07/09 11:34:52;;;;;;;1.80;1.70;;;;;;;33.39;29.01;99821.03;5093616;28;43232;-78
2022/07/09 11:37:24;;;;;;;2.00;1.90;;;;;;;33.72;28.96;99820.00;5075393;28;42571;-77
2022/07/09 11:39:53;;;;;;;2.43;2.00;;;;;;;33.99;27.90;99828.91;5090237;28;40184;-78